Time;durP1;ratioP1;P1;durP2;ratioP2;P2;SDS_P1;SDS_P2;PMS_P1;PMS_P2;Temp;Humidity;BMP_temperature;BMP_pressure;BME280_temperature;BME280_humidity;BME280_pressure;Samples;Min_cycle;Max_cycle;Signal;HPM_P1;HPM_P2
2022/01/29 05:00:39;;;;;;;37.53;18.42;;;7.90;99.90;;;;;;5874110;23;20097;-80
2022/01/29 05:03:10;;;;;;;40.42;19.17;;;7.90;99.90;;;;;;4957690;28;20419;-80
2022/01/29 05:05:36;;;;;;;45.50;18.25;;;8.00;99.90;;;;;;4973612;28;20054;-80
2022/01/29 05:08:02;;;;;;;26.15;8.75;;;7.90;99.90;;;;;;4973926;28;20043;-81
2022/01/29 05:10:28;;;;;;;43.67;18.98;;;8.00;99.90;;;;;;4975074;28;20501;-79
2022/01/29 05:13:00;;;;;;;43.60;18.10;;;7.90;99.90;;;;;;4973448;28;20038;-80
2022/01/29 05:28:52;;;;;;;33.45;15.85;;;8.00;99.90;;;;;;4973316;28;20087;-81
2022/01/29 05:31:18;;;;;;;33.00;16.42;;;8.00;99.90;;;;;;4973262;28;20074;-81
2022/01/29 05:33:43;;;;;;;38.95;15.75;;;8.00;99.90;;;;;;4973484;28;20046;-79
2022/01/29 05:36:09;;;;;;;33.35;15.35;;;8.00;99.90;;;;;;4973274;28;20051;-82
2022/01/29 05:38:35;;;;;;;32.83;15.65;;;8.10;99.90;;;;;;4957186;28;20411;-79
2022/01/29 05:41:03;;;;;;;41.85;16.88;;;8.10;99.90;;;;;;4974233;28;20078;-81
2022/01/29 05:43:29;;;;;;;32.88;15.57;;;8.10;99.90;;;;;;4973063;28;20034;-79
2022/01/29 05:45:55;;;;;;;36.15;15.60;;;8.10;99.90;;;;;;4973066;28;20042;-81
2022/01/29 05:48:20;;;;;;;41.97;17.73;;;8.10;99.90;;;;;;4956971;28;20039;-81
2022/01/29 05:50:46;;;;;;;33.40;14.57;;;8.10;99.90;;;;;;4972921;28;20053;-80
2022/01/29 05:53:12;;;;;;;33.58;15.60;;;8.10;99.90;;;;;;4973278;28;20070;-81
2022/01/29 05:55:37;;;;;;;31.70;14.80;;;8.10;99.90;;;;;;4973068;28;20050;-82
2022/01/29 05:58:03;;;;;;;30.45;13.63;;;8.20;99.90;;;;;;4972989;28;20039;-79
2022/01/29 06:00:29;;;;;;;29.00;12.40;;;8.10;99.90;;;;;;4973468;28;20046;-80
2022/01/29 06:03:03;;;;;;;31.17;14.63;;;8.20;99.90;;;;;;4977391;28;20081;-81
2022/01/29 06:05:28;;;;;;;36.08;15.02;;;8.20;99.90;;;;;;4976890;28;20039;-80
2022/01/29 06:07:54;;;;;;;31.85;13.68;;;8.20;99.90;;;;;;4960652;28;20041;-80
2022/01/29 06:10:20;;;;;;;36.00;13.38;;;8.20;99.90;;;;;;4976611;28;20047;-83
2022/01/29 06:13:08;;;;;;;36.40;14.68;;;8.20;99.90;;;;;;4976682;28;20061;-80
2022/01/29 06:15:39;;;;;;;30.20;13.27;;;8.30;99.90;;;;;;4977002;28;20053;-80
2022/01/29 06:18:05;;;;;;;32.45;14.50;;;8.30;99.90;;;;;;4976915;28;20137;-81
2022/01/29 06:20:32;;;;;;;32.38;13.52;;;8.30;99.90;;;;;;4976324;28;20054;-81
2022/01/29 06:22:57;;;;;;;30.27;14.05;;;8.30;99.90;;;;;;4976551;28;20043;-80
2022/01/29 06:25:23;;;;;;;29.42;13.00;;;8.40;99.90;;;;;;4978113;28;20042;-83
2022/01/29 06:27:49;;;;;;;25.85;11.68;;;8.40;99.90;;;;;;4976432;28;20035;-80
2022/01/29 06:30:15;;;;;;;29.67;11.95;;;8.40;99.90;;;;;;4976293;28;20178;-82
2022/01/29 06:32:42;;;;;;;24.60;12.93;;;8.40;99.90;;;;;;4976356;28;20507;-80
2022/01/29 06:35:09;;;;;;;29.75;12.88;;;8.50;99.90;;;;;;4976436;28;20046;-80
2022/01/29 06:37:34;;;;;;;30.20;12.23;;;8.40;99.90;;;;;;4976385;28;20078;-80
2022/01/29 06:40:00;;;;;;;25.15;12.68;;;8.40;99.90;;;;;;4976207;28;20467;-81
2022/01/29 06:42:26;;;;;;;27.55;12.10;;;8.40;99.90;;;;;;4977578;28;20034;-81
2022/01/29 06:44:52;;;;;;;25.17;12.10;;;8.40;99.90;;;;;;4960028;28;20035;-79
2022/01/29 06:47:18;;;;;;;26.05;11.68;;;8.40;99.90;;;;;;4976257;28;20043;-79
2022/01/29 06:49:43;;;;;;;26.30;11.55;;;8.40;99.90;;;;;;4960238;28;20046;-80
2022/01/29 06:52:09;;;;;;;24.25;8.80;;;8.40;99.90;;;;;;4976022;28;20042;-79
2022/01/29 06:54:34;;;;;;;26.88;11.38;;;8.50;99.90;;;;;;4975934;28;20085;-79
2022/01/29 06:57:00;;;;;;;25.15;11.15;;;8.50;99.90;;;;;;4975980;28;20066;-81
2022/01/29 06:59:26;;;;;;;26.52;9.80;;;8.50;99.90;;;;;;4976005;28;20042;-79
2022/01/29 07:01:51;;;;;;;28.58;11.77;;;8.50;99.90;;;;;;4975613;28;20043;-81
2022/01/29 07:04:17;;;;;;;26.25;12.55;;;8.50;99.90;;;;;;4975779;28;20045;-79
2022/01/29 07:06:42;;;;;;;27.13;12.23;;;8.50;99.90;;;;;;4975992;28;20038;-80
2022/01/29 07:09:08;;;;;;;26.88;11.73;;;8.50;99.90;;;;;;4977216;28;20035;-81
2022/01/29 07:11:34;;;;;;;29.67;12.40;;;8.40;99.90;;;;;;4975396;28;20047;-79
2022/01/29 07:14:03;;;;;;;31.48;12.70;;;8.50;99.90;;;;;;4975733;28;20043;-80
2022/01/29 07:16:31;;;;;;;25.95;12.25;;;8.50;99.90;;;;;;4975908;28;20592;-80
2022/01/29 07:18:56;;;;;;;30.38;12.18;;;8.40;99.90;;;;;;4977176;28;20062;-81
2022/01/29 07:21:23;;;;;;;28.83;11.90;;;8.50;99.90;;;;;;4976876;28;20151;-81
2022/01/29 07:23:49;;;;;;;26.58;10.93;;;8.40;99.90;;;;;;4976837;28;20043;-81
2022/01/29 07:26:15;;;;;;;26.80;11.43;;;8.40;99.90;;;;;;4975618;28;20391;-80
2022/01/29 07:28:40;;;;;;;25.90;11.65;;;8.40;99.90;;;;;;4975656;28;20071;-79
2022/01/29 07:31:06;;;;;;;30.45;13.15;;;8.40;99.90;;;;;;4976524;28;20565;-80
2022/01/29 07:33:32;;;;;;;27.80;11.45;;;8.40;99.90;;;;;;4975331;28;20150;-81
2022/01/29 07:35:58;;;;;;;23.33;12.27;;;8.40;99.90;;;;;;4975535;28;20054;-81
2022/01/29 07:38:24;;;;;;;28.30;11.15;;;8.40;99.90;;;;;;4976742;28;20050;-81
2022/01/29 07:40:49;;;;;;;25.55;11.80;;;8.30;99.90;;;;;;4959151;28;20529;-82
2022/01/29 07:43:15;;;;;;;33.67;11.60;;;8.40;99.90;;;;;;4977911;28;20046;-80
2022/01/29 07:45:41;;;;;;;27.73;10.88;;;8.40;99.90;;;;;;4979496;28;20070;-80
2022/01/29 07:48:06;;;;;;;29.67;11.48;;;8.40;99.90;;;;;;4986644;28;20078;-80
2022/01/29 07:50:32;;;;;;;24.10;10.32;;;8.40;99.90;;;;;;4991535;28;20038;-77
2022/01/29 07:52:59;;;;;;;25.33;11.55;;;8.40;99.90;;;;;;4986799;28;20065;-81
2022/01/29 07:55:31;;;;;;;34.47;12.68;;;8.40;99.90;;;;;;4982243;28;20054;-81
2022/01/29 07:58:01;;;;;;;31.20;13.75;;;8.40;99.90;;;;;;4976979;28;20055;-83
2022/01/29 08:00:28;;;;;;;39.35;14.70;;;8.40;99.90;;;;;;4976919;28;20050;-83
2022/01/29 08:02:54;;;;;;;25.73;10.85;;;8.40;99.90;;;;;;4976442;28;20039;-84
2022/01/29 08:05:19;;;;;;;29.25;12.43;;;8.50;99.90;;;;;;4974995;28;20039;-86
2022/01/29 08:07:45;;;;;;;29.60;10.75;;;8.50;99.90;;;;;;4976459;28;20368;-84
2022/01/29 08:10:11;;;;;;;26.67;12.35;;;8.50;99.90;;;;;;4958609;28;20041;-84
2022/01/29 08:12:39;;;;;;;32.33;12.60;;;8.50;99.90;;;;;;4974518;28;20046;-85
2022/01/29 08:15:06;;;;;;;29.33;10.95;;;8.50;99.90;;;;;;4975788;28;20122;-84
2022/01/29 08:17:31;;;;;;;23.15;11.93;;;8.50;99.90;;;;;;4976084;28;20039;-85
2022/01/29 08:20:00;;;;;;;29.80;12.75;;;8.50;99.90;;;;;;4974639;28;20043;-83
2022/01/29 08:22:26;;;;;;;26.23;10.75;;;8.50;99.90;;;;;;4975427;28;20502;-81
2022/01/29 08:24:52;;;;;;;26.63;10.02;;;8.50;99.90;;;;;;4957644;28;20558;-87
2022/01/29 08:27:19;;;;;;;20.70;8.38;;;8.50;99.90;;;;;;4975696;28;20043;-84
2022/01/29 08:29:44;;;;;;;17.05;6.78;;;8.60;99.90;;;;;;4958237;28;20073;-84
2022/01/29 08:32:11;;;;;;;20.60;7.63;;;8.60;99.90;;;;;;4974077;28;20038;-84
2022/01/29 08:34:38;;;;;;;24.90;8.75;;;8.70;99.90;;;;;;4974303;28;20457;-84
2022/01/29 08:37:05;;;;;;;21.48;8.93;;;8.70;99.90;;;;;;4975350;28;20502;-85
2022/01/29 08:39:31;;;;;;;19.00;6.25;;;8.70;99.90;;;;;;4974030;28;20054;-85
2022/01/29 08:41:57;;;;;;;16.00;6.25;;;8.70;99.90;;;;;;4975229;28;20493;-84
2022/01/29 08:44:23;;;;;;;17.63;6.88;;;8.80;99.90;;;;;;4974159;28;20081;-85
2022/01/29 08:46:49;;;;;;;15.65;6.28;;;8.80;99.90;;;;;;4973870;28;20118;-86
2022/01/29 08:49:14;;;;;;;19.65;6.72;;;8.90;99.90;;;;;;4976026;28;20177;-85
2022/01/29 08:51:40;;;;;;;15.55;6.45;;;8.90;99.90;;;;;;4974593;28;20042;-83
2022/01/29 08:54:06;;;;;;;21.90;6.75;;;8.90;99.90;;;;;;4974189;28;20498;-85
2022/01/29 08:56:31;;;;;;;12.27;4.53;;;8.90;99.90;;;;;;4975352;28;20479;-84
2022/01/29 08:58:57;;;;;;;16.77;6.00;;;8.90;99.90;;;;;;4974004;28;20050;-84
2022/01/29 09:01:23;;;;;;;16.13;5.68;;;9.00;99.90;;;;;;4975015;28;20111;-86
2022/01/29 09:03:48;;;;;;;19.02;7.03;;;9.00;99.90;;;;;;4973656;28;20042;-85
2022/01/29 09:06:14;;;;;;;12.07;5.20;;;9.00;99.90;;;;;;4973674;28;20053;-84
2022/01/29 09:08:41;;;;;;;17.08;6.10;;;9.00;99.90;;;;;;4974785;28;20049;-84
2022/01/29 09:11:07;;;;;;;17.67;5.75;;;9.10;99.90;;;;;;4957228;28;20047;-85
2022/01/29 09:13:33;;;;;;;13.18;5.00;;;9.00;99.90;;;;;;4974766;28;20105;-85
2022/01/29 09:15:59;;;;;;;22.05;6.35;;;9.10;99.90;;;;;;4973492;28;20483;-85
2022/01/29 09:18:25;;;;;;;16.83;6.15;;;9.10;99.90;;;;;;4973525;28;20059;-86
2022/01/29 09:20:52;;;;;;;19.98;5.93;;;9.20;99.90;;;;;;4957489;28;20109;-85
2022/01/29 09:23:18;;;;;;;15.57;5.38;;;9.20;99.90;;;;;;4973433;28;20046;-85
2022/01/29 09:25:44;;;;;;;20.17;5.45;;;9.20;99.90;;;;;;4973289;28;20039;-87
2022/01/29 09:28:12;;;;;;;14.98;4.68;;;9.30;99.90;;;;;;4958500;28;20049;-84
2022/01/29 09:30:38;;;;;;;14.18;4.40;;;9.30;99.90;;;;;;4957494;28;20475;-84
2022/01/29 09:33:04;;;;;;;17.15;4.30;;;9.40;99.90;;;;;;4973425;28;20396;-84
2022/01/29 09:35:30;;;;;;;12.32;4.93;;;9.30;99.90;;;;;;4973004;28;20046;-84
2022/01/29 09:37:56;;;;;;;9.98;3.25;;;9.40;99.90;;;;;;4973194;28;20049;-85
2022/01/29 09:40:22;;;;;;;15.65;4.70;;;9.40;99.90;;;;;;4974699;28;20073;-81
2022/01/29 09:42:50;;;;;;;19.40;4.45;;;9.40;99.90;;;;;;4974679;28;20109;-83
2022/01/29 09:45:18;;;;;;;16.27;5.10;;;9.40;99.90;;;;;;4974886;28;20034;-82
2022/01/29 09:47:46;;;;;;;13.98;4.78;;;9.40;99.90;;;;;;4974382;28;20035;-85
2022/01/29 09:50:14;;;;;;;13.90;4.40;;;9.30;99.90;;;;;;4972772;28;20047;-78
2022/01/29 09:52:41;;;;;;;13.77;4.25;;;9.40;99.90;;;;;;4956856;28;20054;-82
2022/01/29 09:55:07;;;;;;;12.60;4.43;;;9.40;99.90;;;;;;4975036;28;20062;-84
2022/01/29 09:57:33;;;;;;;11.50;4.30;;;9.40;99.90;;;;;;4974683;28;20034;-82
2022/01/29 09:59:59;;;;;;;15.45;4.40;;;9.40;99.90;;;;;;4974015;28;20125;-85
2022/01/29 10:02:25;;;;;;;13.05;4.32;;;9.40;99.90;;;;;;4972736;28;20133;-85
2022/01/29 10:04:54;;;;;;;12.10;3.47;;;9.40;99.90;;;;;;4974366;28;20035;-85
2022/01/29 10:07:30;;;;;;;14.50;4.07;;;9.40;99.90;;;;;;4974469;28;20478;-86
2022/01/29 10:09:59;;;;;;;13.60;4.65;;;9.40;99.90;;;;;;4973253;28;20058;-86
2022/01/29 10:12:33;;;;;;;13.13;4.03;;;9.40;99.90;;;;;;4973097;28;20050;-84
2022/01/29 10:15:07;;;;;;;14.35;5.15;;;9.40;99.90;;;;;;4973028;28;20050;-86
2022/01/29 10:17:43;;;;;;;15.20;5.00;;;9.40;99.90;;;;;;4957619;28;20101;-86
2022/01/29 10:20:20;;;;;;;11.60;3.53;;;9.40;99.90;;;;;;4972891;28;20129;-85
2022/01/29 10:22:51;;;;;;;21.75;3.47;;;9.40;99.90;;;;;;4974359;28;20090;-87
2022/01/29 10:25:29;;;;;;;10.25;3.05;;;9.40;99.90;;;;;;4973268;28;20049;-86
2022/01/29 10:28:07;;;;;;;14.73;3.42;;;9.50;99.90;;;;;;4956650;28;20047;-85
2022/01/29 10:30:48;;;;;;;15.93;4.53;;;9.50;99.90;;;;;;4972667;28;20058;-84
2022/01/29 10:33:21;;;;;;;14.60;3.35;;;9.50;99.90;;;;;;4974002;28;20039;-83
2022/01/29 10:35:49;;;;;;;14.70;3.50;;;9.50;99.90;;;;;;4972523;28;20511;-84
2022/01/29 10:38:22;;;;;;;13.32;3.25;;;9.60;99.90;;;;;;4956761;28;20051;-85
2022/01/29 10:41:20;;;;;;;14.77;3.45;;;9.60;99.90;;;;;;4972675;28;20042;-83
2022/01/29 10:43:59;;;;;;;14.48;3.15;;;9.70;99.90;;;;;;4956423;28;20078;-82
2022/01/29 10:46:30;;;;;;;19.80;3.88;;;9.70;99.90;;;;;;4956951;28;20089;-82
2022/01/29 10:48:59;;;;;;;12.30;3.40;;;9.70;99.90;;;;;;4977155;28;20034;-81
2022/01/29 10:51:26;;;;;;;15.43;3.78;;;9.80;99.90;;;;;;4975886;28;20046;-84
2022/01/29 10:53:53;;;;;;;9.15;2.85;;;9.80;99.90;;;;;;4975880;28;20061;-83
2022/01/29 10:56:20;;;;;;;14.35;3.97;;;9.80;99.90;;;;;;4975938;28;20514;-84
2022/01/29 10:58:52;;;;;;;10.93;2.40;;;9.80;99.90;;;;;;4976222;28;20427;-81
2022/01/29 11:01:21;;;;;;;13.80;3.40;;;9.90;99.90;;;;;;4975432;28;20050;-82
2022/01/29 11:03:47;;;;;;;12.15;3.28;;;9.90;99.90;;;;;;4976163;28;20390;-82
2022/01/29 11:06:17;;;;;;;10.45;2.60;;;9.90;99.90;;;;;;4959684;28;20039;-86
2022/01/29 11:08:45;;;;;;;9.43;2.70;;;10.00;99.90;;;;;;4959846;28;20423;-81
2022/01/29 11:11:11;;;;;;;14.68;3.55;;;10.00;99.90;;;;;;4975636;28;20113;-85
2022/01/29 11:13:39;;;;;;;12.73;2.90;;;10.10;99.90;;;;;;4959511;28;20053;-84
2022/01/29 11:16:05;;;;;;;11.70;2.70;;;10.10;99.90;;;;;;4959607;28;20399;-84
2022/01/29 11:18:34;;;;;;;9.90;2.88;;;10.20;99.90;;;;;;4975866;28;20514;-82
2022/01/29 11:21:01;;;;;;;13.73;2.80;;;10.20;99.90;;;;;;4975284;28;20054;-80
2022/01/29 11:23:29;;;;;;;12.25;2.90;;;10.20;99.90;;;;;;4977022;28;20129;-86
2022/01/29 11:25:57;;;;;;;10.65;2.55;;;10.20;99.90;;;;;;4975551;28;20082;-82
2022/01/29 11:28:26;;;;;;;15.38;2.45;;;10.30;99.90;;;;;;4975248;28;20042;-83
2022/01/29 11:31:13;;;;;;;18.25;3.05;;;10.30;99.90;;;;;;4975198;28;20384;-84
2022/01/29 11:33:57;;;;;;;11.43;2.40;;;10.30;99.90;;;;;;4959249;28;20491;-83
2022/01/29 11:36:49;;;;;;;11.45;2.50;;;10.20;99.90;;;;;;4975356;28;20122;-82
2022/01/29 11:39:34;;;;;;;17.00;2.70;;;10.20;99.90;;;;;;4975318;28;20130;-80
2022/01/29 11:42:15;;;;;;;7.25;2.05;;;10.30;99.90;;;;;;4974890;28;20062;-83
2022/01/29 11:44:42;;;;;;;10.82;2.10;;;10.30;99.90;;;;;;4975187;28;20043;-81
2022/01/29 11:47:43;;;;;;;9.30;2.20;;;10.40;99.90;;;;;;4975163;28;20047;-81
2022/01/29 11:50:27;;;;;;;12.02;2.40;;;10.50;99.90;;;;;;4972201;28;20051;-82
2022/01/29 11:52:58;;;;;;;12.45;2.28;;;10.60;99.90;;;;;;4975979;28;20046;-84
2022/01/29 11:55:44;;;;;;;9.35;2.00;;;10.60;99.90;;;;;;4983378;28;20050;-83
2022/01/29 11:58:13;;;;;;;10.80;2.90;;;10.70;99.90;;;;;;4988196;28;20488;-83
2022/01/29 12:00:39;;;;;;;12.20;2.63;;;10.70;99.90;;;;;;4996482;28;20050;-82
2022/01/29 12:03:06;;;;;;;14.10;2.13;;;10.80;99.90;;;;;;4976900;28;20085;-83
2022/01/29 12:08:57;;;;;;;8.35;1.60;;;10.80;99.90;;;;;;4978256;28;20051;-80
2022/01/29 12:11:25;;;;;;;7.93;1.73;;;10.80;99.90;;;;;;4958822;28;20081;-83
2022/01/29 12:14:13;;;;;;;13.98;3.15;;;10.90;99.90;;;;;;4977118;28;20046;-83
2022/01/29 12:17:06;;;;;;;12.30;3.45;;;10.90;99.90;;;;;;4974701;28;20126;-85
2022/01/29 12:19:46;;;;;;;11.00;2.28;;;10.90;99.90;;;;;;4956278;28;20082;-83
2022/01/29 12:22:13;;;;;;;7.18;1.98;;;11.00;99.90;;;;;;4974164;28;20054;-81
2022/01/29 12:24:41;;;;;;;12.45;2.38;;;11.10;99.90;;;;;;4974579;28;20043;-82
2022/01/29 12:27:07;;;;;;;10.13;2.10;;;11.10;99.90;;;;;;4975663;28;20495;-82
2022/01/29 12:29:34;;;;;;;13.15;2.08;;;11.10;99.90;;;;;;4974235;28;20074;-81
2022/01/29 12:32:00;;;;;;;12.95;2.63;;;11.20;99.90;;;;;;4975592;28;20043;-82
2022/01/29 12:34:28;;;;;;;10.10;2.58;;;11.40;99.90;;;;;;4974226;28;20339;-82
2022/01/29 12:37:14;;;;;;;8.48;1.80;;;11.40;99.90;;;;;;4975317;28;20487;-82
2022/01/29 12:39:46;;;;;;;9.50;1.95;;;11.40;99.90;;;;;;4973795;28;20126;-83
2022/01/29 12:44:54;;;;;;;11.30;2.42;;;11.30;99.90;;;;;;4975041;28;20074;-79
2022/01/29 12:47:30;;;;;;;8.18;1.90;;;11.20;99.90;;;;;;4975494;28;20043;-84
2022/01/29 12:49:56;;;;;;;16.90;3.08;;;11.10;99.90;;;;;;4974238;28;20047;-83
2022/01/29 12:52:23;;;;;;;8.63;2.70;;;11.10;99.90;;;;;;4973693;28;20117;-82
2022/01/29 12:54:53;;;;;;;12.48;2.15;;;11.00;99.90;;;;;;4973612;28;20073;-81
2022/01/29 12:57:20;;;;;;;8.60;1.80;;;11.00;99.90;;;;;;4973878;28;20051;-80
2022/01/29 12:59:46;;;;;;;13.07;2.58;;;11.00;99.90;;;;;;4973714;28;20047;-82
2022/01/29 13:02:12;;;;;;;6.72;1.70;;;11.10;99.90;;;;;;4973305;28;20106;-82
2022/01/29 13:04:39;;;;;;;10.73;2.10;;;11.10;99.90;;;;;;4973936;28;20042;-82
2022/01/29 13:07:07;;;;;;;12.25;2.28;;;11.00;99.90;;;;;;4975059;28;20043;-84
2022/01/29 13:09:37;;;;;;;6.22;1.58;;;10.90;99.90;;;;;;4973305;28;20043;-83
2022/01/29 13:12:05;;;;;;;11.82;2.20;;;10.80;99.90;;;;;;4973793;28;20042;-84
2022/01/29 13:14:31;;;;;;;12.27;2.20;;;10.80;99.90;;;;;;4973699;28;20097;-85
2022/01/29 13:17:06;;;;;;;11.73;2.38;;;10.80;99.90;;;;;;4957752;28;20065;-85
2022/01/29 13:19:33;;;;;;;9.43;2.22;;;10.80;99.90;;;;;;4975623;28;20524;-86
2022/01/29 13:22:01;;;;;;;10.40;1.92;;;10.70;99.90;;;;;;4974874;28;20391;-87
2022/01/29 13:24:29;;;;;;;13.38;2.03;;;10.70;99.90;;;;;;4973570;28;20058;-87
2022/01/29 13:27:09;;;;;;;11.25;1.88;;;10.70;99.90;;;;;;4975140;28;20053;-87
2022/01/29 13:30:18;;;;;;;11.73;2.63;;;10.70;99.90;;;;;;4974788;28;20043;-84
2022/01/29 13:32:47;;;;;;;9.50;2.17;;;10.70;99.90;;;;;;4973801;28;20055;-85
2022/01/29 13:35:29;;;;;;;10.95;2.20;;;10.70;99.90;;;;;;4973408;28;20058;-84
2022/01/29 13:37:56;;;;;;;14.80;2.05;;;10.70;99.90;;;;;;4973734;28;20047;-83
2022/01/29 13:40:42;;;;;;;11.95;1.80;;;10.80;99.90;;;;;;4957428;28;20177;-86
2022/01/29 13:43:11;;;;;;;8.77;1.85;;;10.80;99.90;;;;;;4973109;28;20096;-84
2022/01/29 13:45:51;;;;;;;7.97;2.00;;;10.90;99.90;;;;;;4975299;28;20476;-86
2022/01/29 13:48:18;;;;;;;9.35;1.60;;;10.90;99.90;;;;;;4975189;28;20407;-85
2022/01/29 13:50:44;;;;;;;15.32;2.67;;;11.00;99.90;;;;;;4973150;28;20050;-86
2022/01/29 13:53:18;;;;;;;6.97;1.75;;;11.00;99.90;;;;;;4957508;28;20058;-84
2022/01/29 13:56:20;;;;;;;8.75;1.52;;;11.00;99.90;;;;;;4957156;28;20046;-87
2022/01/29 13:59:20;;;;;;;10.27;2.13;;;11.00;99.90;;;;;;4902510;29;20047;-84
2022/01/29 14:01:58;;;;;;;8.32;1.88;;;11.10;99.90;;;;;;4941281;28;20495;-83
2022/01/29 14:04:32;;;;;;;7.15;1.83;;;11.10;99.90;;;;;;4957618;28;20506;-87
2022/01/29 14:07:06;;;;;;;9.75;1.60;;;11.20;99.90;;;;;;4957213;28;20502;-85
2022/01/29 14:09:47;;;;;;;11.05;2.10;;;11.20;99.90;;;;;;4957646;28;20387;-87
2022/01/29 14:12:23;;;;;;;8.07;1.70;;;11.20;99.90;;;;;;4973685;28;20042;-84
2022/01/29 14:14:54;;;;;;;9.80;2.28;;;11.30;99.90;;;;;;4973382;28;20043;-83
2022/01/29 14:17:32;;;;;;;7.32;1.27;;;11.40;99.90;;;;;;4973503;28;20453;-84
2022/01/29 14:19:59;;;;;;;9.35;1.88;;;11.40;99.90;;;;;;4974567;28;20049;-83
2022/01/29 14:22:30;;;;;;;7.78;1.40;;;11.40;99.90;;;;;;4976483;28;20058;-89
2022/01/29 14:24:59;;;;;;;6.20;1.63;;;11.40;99.90;;;;;;4960909;28;20328;-86
2022/01/29 14:27:25;;;;;;;6.57;1.73;;;11.40;99.90;;;;;;4960654;28;20348;-83
2022/01/29 14:29:51;;;;;;;7.18;1.35;;;11.40;99.90;;;;;;4976369;28;20487;-83
2022/01/29 14:32:17;;;;;;;10.65;1.98;;;11.40;99.90;;;;;;4960697;28;20384;-88
2022/01/29 14:34:44;;;;;;;9.15;1.80;;;11.40;99.90;;;;;;4960061;28;20154;-88
2022/01/29 14:37:10;;;;;;;8.30;1.52;;;11.40;99.90;;;;;;4976415;28;20047;-84
2022/01/29 14:39:37;;;;;;;9.35;1.85;;;11.40;99.90;;;;;;4976599;28;20430;-88
2022/01/29 14:42:07;;;;;;;12.35;2.25;;;11.40;99.90;;;;;;4977706;28;20050;-88
2022/01/29 14:44:33;;;;;;;7.32;1.65;;;11.50;99.90;;;;;;4976573;28;20081;-89
2022/01/29 14:46:59;;;;;;;7.18;1.98;;;11.40;99.90;;;;;;4977684;28;20391;-86
2022/01/29 14:49:26;;;;;;;9.13;2.70;;;11.50;99.90;;;;;;4960195;28;20053;-87
2022/01/29 14:51:54;;;;;;;15.95;4.82;;;11.40;99.90;;;;;;4976338;28;20082;-87
2022/01/29 14:54:22;;;;;;;11.73;3.72;;;11.40;99.90;;;;;;4976801;28;20436;-82
2022/01/29 14:56:49;;;;;;;14.77;4.18;;;11.40;99.90;;;;;;4976058;28;20125;-86
2022/01/29 14:59:15;;;;;;;14.63;4.07;;;11.30;99.90;;;;;;4977788;28;20043;-88
2022/01/29 15:01:42;;;;;;;14.02;3.55;;;11.20;99.90;;;;;;4975877;28;20108;-89
2022/01/29 15:04:09;;;;;;;11.75;2.72;;;11.30;99.90;;;;;;4977876;28;20402;-85
2022/01/29 15:06:34;;;;;;;9.73;2.25;;;11.20;99.90;;;;;;4976710;28;20089;-86
2022/01/29 15:09:00;;;;;;;15.00;2.95;;;11.20;99.90;;;;;;4959951;28;20071;-87
2022/01/29 15:11:26;;;;;;;9.95;2.65;;;11.30;99.90;;;;;;4977355;28;20069;-87
2022/01/29 15:13:53;;;;;;;12.48;2.35;;;11.30;99.90;;;;;;4976211;28;20050;-83
2022/01/29 15:16:20;;;;;;;11.75;1.80;;;11.30;99.90;;;;;;4975846;28;20225;-86
2022/01/29 15:18:45;;;;;;;16.98;2.28;;;11.40;99.90;;;;;;4959377;28;20057;-85
2022/01/29 15:21:11;;;;;;;12.63;2.78;;;11.40;99.90;;;;;;4959609;28;20046;-90
2022/01/29 15:23:37;;;;;;;12.38;3.03;;;11.40;99.90;;;;;;4977381;28;20085;-88
2022/01/29 15:26:03;;;;;;;11.38;2.63;;;11.40;99.90;;;;;;4976841;28;20446;-87
2022/01/29 15:28:29;;;;;;;14.00;3.55;;;11.40;99.90;;;;;;4976845;28;20041;-85
2022/01/29 15:30:57;;;;;;;14.32;3.00;;;11.40;99.90;;;;;;4974974;28;20483;-85
2022/01/29 15:33:24;;;;;;;12.40;2.58;;;11.40;99.90;;;;;;4975193;28;20051;-87
2022/01/29 15:35:49;;;;;;;18.67;2.97;;;11.40;99.90;;;;;;4975623;28;20043;-88
2022/01/29 15:38:16;;;;;;;11.93;2.70;;;11.30;99.90;;;;;;4975366;28;20524;-84
2022/01/29 15:40:46;;;;;;;13.55;2.08;;;11.30;99.90;;;;;;4974755;28;20053;-87
2022/01/29 15:43:12;;;;;;;17.45;3.63;;;11.30;99.90;;;;;;4977396;28;20031;-86
2022/01/29 15:45:41;;;;;;;20.52;4.25;;;11.30;99.90;;;;;;4975003;28;20049;-86
2022/01/29 15:48:07;;;;;;;19.40;3.05;;;11.20;99.90;;;;;;4975381;28;20126;-86
2022/01/29 15:50:33;;;;;;;23.48;3.80;;;11.10;99.90;;;;;;4975587;28;20126;-84
2022/01/29 15:52:59;;;;;;;19.20;3.35;;;11.10;99.90;;;;;;4974802;28;20534;-85
2022/01/29 15:55:25;;;;;;;15.70;3.30;;;11.10;99.90;;;;;;4958711;28;20050;-88
2022/01/29 15:57:50;;;;;;;19.75;4.05;;;11.00;99.90;;;;;;4958568;28;20070;-86
2022/01/29 16:00:21;;;;;;;14.82;3.80;;;11.00;99.90;;;;;;4958648;28;20106;-85
2022/01/29 16:02:47;;;;;;;17.40;2.97;;;10.90;99.90;;;;;;4974769;28;20038;-84
2022/01/29 16:05:13;;;;;;;20.38;4.43;;;10.90;99.90;;;;;;4958762;28;20046;-86
2022/01/29 16:07:38;;;;;;;17.95;3.63;;;10.90;99.90;;;;;;4958923;28;20053;-88
2022/01/29 16:10:04;;;;;;;16.45;3.45;;;10.90;99.90;;;;;;4976217;28;20039;-85
2022/01/29 16:12:32;;;;;;;26.73;4.78;;;10.90;99.90;;;;;;4974695;28;20398;-84
2022/01/29 16:14:59;;;;;;;21.05;4.10;;;10.90;99.90;;;;;;4974868;28;20073;-85
2022/01/29 16:17:25;;;;;;;21.92;4.28;;;10.80;99.90;;;;;;4974851;28;20509;-90
2022/01/29 16:19:50;;;;;;;24.65;5.10;;;10.80;99.90;;;;;;4975558;28;20114;-85
2022/01/29 16:22:16;;;;;;;23.10;5.00;;;10.80;99.90;;;;;;4974900;28;20069;-86
2022/01/29 16:24:42;;;;;;;26.60;5.15;;;10.80;99.90;;;;;;4980610;28;20038;-85
2022/01/29 16:27:07;;;;;;;21.10;3.90;;;10.70;99.90;;;;;;4983304;28;20045;-80
2022/01/29 16:29:33;;;;;;;28.02;5.35;;;10.70;99.90;;;;;;4990699;28;20042;-82
2022/01/29 16:31:59;;;;;;;20.50;5.43;;;10.70;99.90;;;;;;4996055;28;20121;-85
2022/01/29 16:34:25;;;;;;;19.88;5.40;;;10.70;99.90;;;;;;4979616;28;20042;-83
2022/01/29 16:36:50;;;;;;;24.40;5.10;;;10.70;99.90;;;;;;4977253;28;20038;-84
2022/01/29 16:39:16;;;;;;;34.20;5.63;;;10.60;99.90;;;;;;4976317;28;20159;-84
2022/01/29 16:41:41;;;;;;;21.38;5.78;;;10.50;99.90;;;;;;4975200;28;20448;-86
2022/01/29 16:44:07;;;;;;;26.70;5.13;;;10.40;99.90;;;;;;4973681;28;20043;-86
2022/01/29 16:46:33;;;;;;;36.60;6.22;;;10.40;99.90;;;;;;4975771;28;20077;-85
2022/01/29 16:48:58;;;;;;;33.60;6.20;;;10.20;99.90;;;;;;4973939;28;20035;-83
2022/01/29 16:51:24;;;;;;;28.58;4.95;;;10.20;99.90;;;;;;4973889;28;20052;-85
2022/01/29 16:53:49;;;;;;;32.08;5.70;;;10.10;99.90;;;;;;4973543;28;20503;-83
2022/01/29 16:56:15;;;;;;;29.67;6.10;;;10.00;99.90;;;;;;4973752;28;20129;-85
2022/01/29 16:58:41;;;;;;;42.10;5.55;;;9.90;99.90;;;;;;4973752;28;20047;-83
2022/01/29 17:01:06;;;;;;;27.17;5.43;;;9.90;99.90;;;;;;4974121;28;20047;-83
2022/01/29 17:03:32;;;;;;;21.73;4.30;;;9.90;99.90;;;;;;4973403;28;20039;-83
2022/01/29 17:05:57;;;;;;;28.98;4.63;;;9.80;99.90;;;;;;4973369;28;20495;-83
2022/01/29 17:08:26;;;;;;;29.58;4.93;;;9.80;99.90;;;;;;4957398;28;20062;-85
2022/01/29 17:10:53;;;;;;;31.35;6.18;;;9.70;99.90;;;;;;4974043;28;20047;-82
2022/01/29 17:13:19;;;;;;;22.45;4.47;;;9.70;99.90;;;;;;4973780;28;20043;-83
2022/01/29 17:15:53;;;;;;;34.75;5.40;;;9.60;99.90;;;;;;4957493;28;20452;-85
2022/01/29 17:18:19;;;;;;;24.95;4.95;;;9.60;99.90;;;;;;4974625;28;20039;-82
2022/01/29 17:20:45;;;;;;;22.83;4.45;;;9.50;99.90;;;;;;4974615;28;20034;-83
2022/01/29 17:23:11;;;;;;;24.67;4.47;;;9.50;99.90;;;;;;4973147;28;20039;-82
2022/01/29 17:25:36;;;;;;;25.58;4.72;;;9.60;99.90;;;;;;4974489;28;20408;-82
2022/01/29 17:28:02;;;;;;;22.52;4.85;;;9.50;99.90;;;;;;4973353;28;20408;-84
2022/01/29 17:30:28;;;;;;;27.02;4.43;;;9.50;99.90;;;;;;4973110;28;20051;-81
2022/01/29 17:32:55;;;;;;;29.95;5.38;;;9.40;99.90;;;;;;4973251;28;20046;-82
2022/01/29 17:35:24;;;;;;;28.80;5.63;;;9.40;99.90;;;;;;4956951;28;20510;-82
2022/01/29 17:37:53;;;;;;;31.65;5.72;;;9.40;99.90;;;;;;4973113;28;20046;-84
2022/01/29 17:40:20;;;;;;;28.83;4.18;;;9.40;99.90;;;;;;4974072;28;20046;-80
2022/01/29 17:42:45;;;;;;;25.80;4.85;;;9.40;99.90;;;;;;4973461;28;20117;-79
2022/01/29 17:45:12;;;;;;;28.90;5.20;;;9.30;99.90;;;;;;4972729;28;20515;-82
2022/01/29 17:47:38;;;;;;;37.90;5.93;;;9.20;99.90;;;;;;4973180;28;20035;-82
2022/01/29 17:50:05;;;;;;;33.10;6.57;;;9.20;99.90;;;;;;4974037;28;20508;-85
2022/01/29 17:52:30;;;;;;;30.80;6.40;;;9.20;99.90;;;;;;4972752;28;20049;-84
2022/01/29 17:54:56;;;;;;;31.73;5.63;;;9.10;99.90;;;;;;4972773;28;20039;-83
2022/01/29 17:57:22;;;;;;;28.83;4.75;;;9.10;99.90;;;;;;4976683;28;20094;-81
2022/01/29 17:59:48;;;;;;;26.60;5.32;;;9.00;99.90;;;;;;4976887;28;20470;-81
2022/01/29 18:02:14;;;;;;;27.73;5.20;;;9.00;99.90;;;;;;4976490;28;20042;-82
2022/01/29 18:04:39;;;;;;;31.52;4.82;;;8.90;99.90;;;;;;4960892;28;20394;-84
2022/01/29 18:07:06;;;;;;;29.85;6.22;;;8.90;99.90;;;;;;4978215;28;20046;-82